高雄終端管制區 - 高雄雷達席

METAR RCKH 281230Z 27005KT 230V300 9999 FEW016 SCT028 29/24 Q1008 NOSIG RMK A2977(A)=

站台狀態:Offline
最後更新:2021-09-28 20:30:01